sensor_id;sensor_type;location;lat;lon;timestamp;pressure;altitude;pressure_sealevel;temperature
11321;BMP180;5715;48.234;14.320;2023-09-08T00:01:26;98863.00;;;27.10
11321;BMP180;5715;48.234;14.320;2023-09-08T00:04:13;98861.00;;;27.10
11321;BMP180;5715;48.234;14.320;2023-09-08T00:07:02;98868.00;;;27.10
11321;BMP180;5715;48.234;14.320;2023-09-08T00:09:50;98871.00;;;27.00
11321;BMP180;5715;48.234;14.320;2023-09-08T00:12:38;98865.00;;;27.10
11321;BMP180;5715;48.234;14.320;2023-09-08T00:15:25;98866.00;;;26.90
11321;BMP180;5715;48.234;14.320;2023-09-08T00:18:13;98868.00;;;27.10
11321;BMP180;5715;48.234;14.320;2023-09-08T00:21:00;98863.00;;;26.90
11321;BMP180;5715;48.234;14.320;2023-09-08T00:23:48;98858.00;;;26.90
11321;BMP180;5715;48.234;14.320;2023-09-08T00:26:35;98854.00;;;26.90
11321;BMP180;5715;48.234;14.320;2023-09-08T00:29:23;98855.00;;;26.90
11321;BMP180;5715;48.234;14.320;2023-09-08T00:32:11;98846.00;;;26.80
11321;BMP180;5715;48.234;14.320;2023-09-08T00:34:58;98848.00;;;26.70
11321;BMP180;5715;48.234;14.320;2023-09-08T00:37:46;98847.00;;;26.70
11321;BMP180;5715;48.234;14.320;2023-09-08T00:40:33;98838.00;;;26.60
11321;BMP180;5715;48.234;14.320;2023-09-08T00:43:21;98833.00;;;26.60
11321;BMP180;5715;48.234;14.320;2023-09-08T00:46:09;98834.00;;;26.80
11321;BMP180;5715;48.234;14.320;2023-09-08T00:48:58;98839.00;;;26.80
11321;BMP180;5715;48.234;14.320;2023-09-08T00:51:46;98837.00;;;26.70
11321;BMP180;5715;48.234;14.320;2023-09-08T00:54:33;98833.00;;;26.80
11321;BMP180;5715;48.234;14.320;2023-09-08T00:57:21;98837.00;;;26.80
11321;BMP180;5715;48.234;14.320;2023-09-08T01:00:09;98841.00;;;26.70
11321;BMP180;5715;48.234;14.320;2023-09-08T01:02:59;98836.00;;;26.80
11321;BMP180;5715;48.234;14.320;2023-09-08T01:05:48;98837.00;;;26.80
11321;BMP180;5715;48.234;14.320;2023-09-08T01:08:37;98838.00;;;26.60
11321;BMP180;5715;48.234;14.320;2023-09-08T01:11:25;98832.00;;;26.50
11321;BMP180;5715;48.234;14.320;2023-09-08T01:14:13;98835.00;;;26.60
11321;BMP180;5715;48.234;14.320;2023-09-08T01:17:01;98840.00;;;26.60
11321;BMP180;5715;48.234;14.320;2023-09-08T01:19:54;98837.00;;;26.60
11321;BMP180;5715;48.234;14.320;2023-09-08T01:26:16;98838.00;;;26.50
11321;BMP180;5715;48.234;14.320;2023-09-08T01:29:06;98834.00;;;26.40
11321;BMP180;5715;48.234;14.320;2023-09-08T01:31:55;98833.00;;;26.30
11321;BMP180;5715;48.234;14.320;2023-09-08T01:34:43;98835.00;;;26.40
11321;BMP180;5715;48.234;14.320;2023-09-08T01:37:30;98837.00;;;26.40
11321;BMP180;5715;48.234;14.320;2023-09-08T01:40:18;98836.00;;;26.40
11321;BMP180;5715;48.234;14.320;2023-09-08T01:43:06;98833.00;;;26.30
11321;BMP180;5715;48.234;14.320;2023-09-08T01:45:53;98836.00;;;26.40
11321;BMP180;5715;48.234;14.320;2023-09-08T01:48:42;98838.00;;;26.40
11321;BMP180;5715;48.234;14.320;2023-09-08T01:51:29;98833.00;;;26.40
11321;BMP180;5715;48.234;14.320;2023-09-08T01:54:17;98830.00;;;26.30
11321;BMP180;5715;48.234;14.320;2023-09-08T01:57:04;98833.00;;;26.20
11321;BMP180;5715;48.234;14.320;2023-09-08T01:59:52;98826.00;;;26.10
11321;BMP180;5715;48.234;14.320;2023-09-08T02:02:39;98828.00;;;26.40
11321;BMP180;5715;48.234;14.320;2023-09-08T02:05:27;98824.00;;;26.30
11321;BMP180;5715;48.234;14.320;2023-09-08T02:08:15;98823.00;;;26.50
11321;BMP180;5715;48.234;14.320;2023-09-08T02:11:02;98820.00;;;26.50
11321;BMP180;5715;48.234;14.320;2023-09-08T02:13:52;98818.00;;;26.30
11321;BMP180;5715;48.234;14.320;2023-09-08T02:16:42;98828.00;;;26.30
11321;BMP180;5715;48.234;14.320;2023-09-08T02:19:29;98831.00;;;26.20
11321;BMP180;5715;48.234;14.320;2023-09-08T02:22:18;98828.00;;;26.40
11321;BMP180;5715;48.234;14.320;2023-09-08T02:25:06;98830.00;;;26.50
11321;BMP180;5715;48.234;14.320;2023-09-08T02:27:53;98825.00;;;26.60
11321;BMP180;5715;48.234;14.320;2023-09-08T02:30:41;98827.00;;;26.60
11321;BMP180;5715;48.234;14.320;2023-09-08T02:33:28;98829.00;;;26.50
11321;BMP180;5715;48.234;14.320;2023-09-08T02:36:16;98828.00;;;26.50
11321;BMP180;5715;48.234;14.320;2023-09-08T02:39:04;98835.00;;;26.40
11321;BMP180;5715;48.234;14.320;2023-09-08T02:41:52;98833.00;;;25.70
11321;BMP180;5715;48.234;14.320;2023-09-08T02:44:41;98834.00;;;25.20
11321;BMP180;5715;48.234;14.320;2023-09-08T02:47:30;98833.00;;;24.90
11321;BMP180;5715;48.234;14.320;2023-09-08T02:50:17;98838.00;;;24.50
11321;BMP180;5715;48.234;14.320;2023-09-08T02:53:05;98835.00;;;24.50
11321;BMP180;5715;48.234;14.320;2023-09-08T02:55:52;98836.00;;;24.30
11321;BMP180;5715;48.234;14.320;2023-09-08T02:58:40;98840.00;;;24.20
11321;BMP180;5715;48.234;14.320;2023-09-08T03:01:27;98833.00;;;24.20
11321;BMP180;5715;48.234;14.320;2023-09-08T03:04:15;98842.00;;;24.10
11321;BMP180;5715;48.234;14.320;2023-09-08T03:07:03;98840.00;;;24.10
11321;BMP180;5715;48.234;14.320;2023-09-08T03:09:50;98835.00;;;24.00
11321;BMP180;5715;48.234;14.320;2023-09-08T03:12:38;98835.00;;;23.80
11321;BMP180;5715;48.234;14.320;2023-09-08T03:15:26;98833.00;;;23.60
11321;BMP180;5715;48.234;14.320;2023-09-08T03:18:15;98828.00;;;23.50
11321;BMP180;5715;48.234;14.320;2023-09-08T03:21:04;98832.00;;;23.40
11321;BMP180;5715;48.234;14.320;2023-09-08T03:23:57;98831.00;;;23.30
11321;BMP180;5715;48.234;14.320;2023-09-08T03:26:44;98832.00;;;23.30
11321;BMP180;5715;48.234;14.320;2023-09-08T03:29:32;98840.00;;;23.10
11321;BMP180;5715;48.234;14.320;2023-09-08T03:32:19;98839.00;;;23.00
11321;BMP180;5715;48.234;14.320;2023-09-08T03:35:08;98834.00;;;22.90
11321;BMP180;5715;48.234;14.320;2023-09-08T03:37:55;98839.00;;;22.90
11321;BMP180;5715;48.234;14.320;2023-09-08T03:40:43;98839.00;;;22.80
11321;BMP180;5715;48.234;14.320;2023-09-08T03:43:30;98836.00;;;22.80
11321;BMP180;5715;48.234;14.320;2023-09-08T03:46:18;98839.00;;;22.70
11321;BMP180;5715;48.234;14.320;2023-09-08T03:49:06;98846.00;;;22.60
11321;BMP180;5715;48.234;14.320;2023-09-08T03:51:54;98845.00;;;22.60
11321;BMP180;5715;48.234;14.320;2023-09-08T03:54:42;98848.00;;;22.60
11321;BMP180;5715;48.234;14.320;2023-09-08T03:57:30;98844.00;;;22.60
11321;BMP180;5715;48.234;14.320;2023-09-08T04:00:17;98847.00;;;22.60
11321;BMP180;5715;48.234;14.320;2023-09-08T04:03:09;98841.00;;;22.60
11321;BMP180;5715;48.234;14.320;2023-09-08T04:05:57;98848.00;;;22.40
11321;BMP180;5715;48.234;14.320;2023-09-08T04:08:44;98852.00;;;22.40
11321;BMP180;5715;48.234;14.320;2023-09-08T04:11:32;98856.00;;;22.00
11321;BMP180;5715;48.234;14.320;2023-09-08T04:14:20;98860.00;;;22.00
11321;BMP180;5715;48.234;14.320;2023-09-08T04:17:08;98857.00;;;21.90
11321;BMP180;5715;48.234;14.320;2023-09-08T04:19:55;98860.00;;;21.70
11321;BMP180;5715;48.234;14.320;2023-09-08T04:22:43;98867.00;;;21.80
11321;BMP180;5715;48.234;14.320;2023-09-08T04:25:30;98861.00;;;22.00
11321;BMP180;5715;48.234;14.320;2023-09-08T04:28:18;98864.00;;;22.20
11321;BMP180;5715;48.234;14.320;2023-09-08T04:31:05;98870.00;;;22.30
11321;BMP180;5715;48.234;14.320;2023-09-08T04:33:54;98871.00;;;22.20
11321;BMP180;5715;48.234;14.320;2023-09-08T04:36:42;98867.00;;;22.30
11321;BMP180;5715;48.234;14.320;2023-09-08T04:39:29;98863.00;;;22.20
11321;BMP180;5715;48.234;14.320;2023-09-08T04:42:17;98878.00;;;22.30
11321;BMP180;5715;48.234;14.320;2023-09-08T04:45:05;98878.00;;;22.30
11321;BMP180;5715;48.234;14.320;2023-09-08T04:47:53;98881.00;;;22.50
11321;BMP180;5715;48.234;14.320;2023-09-08T04:50:40;98886.00;;;22.50
11321;BMP180;5715;48.234;14.320;2023-09-08T04:53:28;98888.00;;;22.60
11321;BMP180;5715;48.234;14.320;2023-09-08T04:56:15;98887.00;;;22.60
11321;BMP180;5715;48.234;14.320;2023-09-08T04:59:03;98893.00;;;22.60
11321;BMP180;5715;48.234;14.320;2023-09-08T05:01:51;98898.00;;;22.70
11321;BMP180;5715;48.234;14.320;2023-09-08T05:04:38;98892.00;;;23.00
11321;BMP180;5715;48.234;14.320;2023-09-08T05:07:26;98892.00;;;23.10
11321;BMP180;5715;48.234;14.320;2023-09-08T05:10:13;98893.00;;;23.30
11321;BMP180;5715;48.234;14.320;2023-09-08T05:13:01;98892.00;;;23.40
11321;BMP180;5715;48.234;14.320;2023-09-08T05:15:49;98899.00;;;23.70
11321;BMP180;5715;48.234;14.320;2023-09-08T05:18:41;98899.00;;;24.10
11321;BMP180;5715;48.234;14.320;2023-09-08T05:21:29;98909.00;;;24.70
11321;BMP180;5715;48.234;14.320;2023-09-08T05:24:16;98903.00;;;24.90
11321;BMP180;5715;48.234;14.320;2023-09-08T05:27:04;98912.00;;;25.20
11321;BMP180;5715;48.234;14.320;2023-09-08T05:29:52;98909.00;;;25.30
11321;BMP180;5715;48.234;14.320;2023-09-08T05:32:39;98909.00;;;25.90
11321;BMP180;5715;48.234;14.320;2023-09-08T05:35:27;98916.00;;;26.30
11321;BMP180;5715;48.234;14.320;2023-09-08T05:38:15;98912.00;;;26.40
11321;BMP180;5715;48.234;14.320;2023-09-08T05:41:03;98912.00;;;26.50
11321;BMP180;5715;48.234;14.320;2023-09-08T05:43:51;98915.00;;;26.90
11321;BMP180;5715;48.234;14.320;2023-09-08T05:46:38;98915.00;;;27.40
11321;BMP180;5715;48.234;14.320;2023-09-08T05:49:26;98912.00;;;28.10
11321;BMP180;5715;48.234;14.320;2023-09-08T05:52:14;98920.00;;;28.50
11321;BMP180;5715;48.234;14.320;2023-09-08T05:55:02;98920.00;;;28.50
11321;BMP180;5715;48.234;14.320;2023-09-08T05:57:50;98923.00;;;28.30
11321;BMP180;5715;48.234;14.320;2023-09-08T06:00:38;98922.00;;;28.00
11321;BMP180;5715;48.234;14.320;2023-09-08T06:03:25;98922.00;;;27.60
11321;BMP180;5715;48.234;14.320;2023-09-08T06:06:14;98922.00;;;27.40
11321;BMP180;5715;48.234;14.320;2023-09-08T06:09:01;98925.00;;;27.30
11321;BMP180;5715;48.234;14.320;2023-09-08T06:11:49;98926.00;;;27.20
11321;BMP180;5715;48.234;14.320;2023-09-08T06:14:37;98932.00;;;27.00
11321;BMP180;5715;48.234;14.320;2023-09-08T06:17:24;98938.00;;;27.00
11321;BMP180;5715;48.234;14.320;2023-09-08T06:20:12;98935.00;;;27.10
11321;BMP180;5715;48.234;14.320;2023-09-08T06:23:00;98940.00;;;27.00
11321;BMP180;5715;48.234;14.320;2023-09-08T06:25:48;98945.00;;;27.00
11321;BMP180;5715;48.234;14.320;2023-09-08T06:28:36;98937.00;;;27.10
11321;BMP180;5715;48.234;14.320;2023-09-08T06:31:24;98938.00;;;27.50
11321;BMP180;5715;48.234;14.320;2023-09-08T06:34:12;98936.00;;;27.50
11321;BMP180;5715;48.234;14.320;2023-09-08T06:37:00;98939.00;;;27.50
11321;BMP180;5715;48.234;14.320;2023-09-08T06:39:47;98936.00;;;27.80
11321;BMP180;5715;48.234;14.320;2023-09-08T06:42:35;98939.00;;;28.00
11321;BMP180;5715;48.234;14.320;2023-09-08T06:45:22;98938.00;;;28.10
11321;BMP180;5715;48.234;14.320;2023-09-08T06:48:10;98929.00;;;28.10
11321;BMP180;5715;48.234;14.320;2023-09-08T06:50:57;98932.00;;;28.30
11321;BMP180;5715;48.234;14.320;2023-09-08T06:53:57;98939.00;;;28.20
11321;BMP180;5715;48.234;14.320;2023-09-08T06:56:47;98950.00;;;28.50
11321;BMP180;5715;48.234;14.320;2023-09-08T06:59:34;98943.00;;;28.80
11321;BMP180;5715;48.234;14.320;2023-09-08T07:02:22;98939.00;;;28.80
11321;BMP180;5715;48.234;14.320;2023-09-08T07:05:10;98939.00;;;29.00
11321;BMP180;5715;48.234;14.320;2023-09-08T07:07:58;98941.00;;;29.10
11321;BMP180;5715;48.234;14.320;2023-09-08T07:10:52;98940.00;;;29.30
11321;BMP180;5715;48.234;14.320;2023-09-08T07:13:39;98938.00;;;29.20
11321;BMP180;5715;48.234;14.320;2023-09-08T07:16:27;98941.00;;;29.60
11321;BMP180;5715;48.234;14.320;2023-09-08T07:19:15;98946.00;;;29.50
11321;BMP180;5715;48.234;14.320;2023-09-08T07:22:02;98939.00;;;29.60
11321;BMP180;5715;48.234;14.320;2023-09-08T07:24:52;98940.00;;;29.90
11321;BMP180;5715;48.234;14.320;2023-09-08T07:27:40;98935.00;;;29.80
11321;BMP180;5715;48.234;14.320;2023-09-08T07:30:27;98937.00;;;30.00
11321;BMP180;5715;48.234;14.320;2023-09-08T07:33:16;98936.00;;;30.30
11321;BMP180;5715;48.234;14.320;2023-09-08T07:36:08;98932.00;;;30.50
11321;BMP180;5715;48.234;14.320;2023-09-08T07:38:56;98932.00;;;30.60
11321;BMP180;5715;48.234;14.320;2023-09-08T07:41:44;98931.00;;;30.30
11321;BMP180;5715;48.234;14.320;2023-09-08T07:44:31;98929.00;;;30.40
11321;BMP180;5715;48.234;14.320;2023-09-08T07:47:19;98932.00;;;30.70
11321;BMP180;5715;48.234;14.320;2023-09-08T07:50:24;98931.00;;;30.70
11321;BMP180;5715;48.234;14.320;2023-09-08T07:53:11;98937.00;;;30.60
11321;BMP180;5715;48.234;14.320;2023-09-08T07:55:59;98942.00;;;31.00
11321;BMP180;5715;48.234;14.320;2023-09-08T07:58:47;98944.00;;;31.40
11321;BMP180;5715;48.234;14.320;2023-09-08T08:01:35;98944.00;;;31.50
11321;BMP180;5715;48.234;14.320;2023-09-08T08:04:22;98944.00;;;31.60
11321;BMP180;5715;48.234;14.320;2023-09-08T08:07:10;98949.00;;;31.30
11321;BMP180;5715;48.234;14.320;2023-09-08T08:09:58;98954.00;;;31.50
11321;BMP180;5715;48.234;14.320;2023-09-08T08:12:45;98946.00;;;31.70
11321;BMP180;5715;48.234;14.320;2023-09-08T08:15:41;98950.00;;;32.10
11321;BMP180;5715;48.234;14.320;2023-09-08T08:18:29;98953.00;;;32.10
11321;BMP180;5715;48.234;14.320;2023-09-08T08:21:17;98946.00;;;32.10
11321;BMP180;5715;48.234;14.320;2023-09-08T08:24:05;98944.00;;;32.30
11321;BMP180;5715;48.234;14.320;2023-09-08T08:26:53;98944.00;;;32.10
11321;BMP180;5715;48.234;14.320;2023-09-08T08:29:41;98941.00;;;32.40
11321;BMP180;5715;48.234;14.320;2023-09-08T08:32:28;98939.00;;;31.80
11321;BMP180;5715;48.234;14.320;2023-09-08T08:35:17;98931.00;;;32.20
11321;BMP180;5715;48.234;14.320;2023-09-08T08:38:05;98937.00;;;32.50
11321;BMP180;5715;48.234;14.320;2023-09-08T08:40:52;98932.00;;;32.30
11321;BMP180;5715;48.234;14.320;2023-09-08T08:43:42;98933.00;;;32.20
11321;BMP180;5715;48.234;14.320;2023-09-08T08:46:31;98938.00;;;32.20
11321;BMP180;5715;48.234;14.320;2023-09-08T08:49:21;98934.00;;;32.40
11321;BMP180;5715;48.234;14.320;2023-09-08T08:52:10;98938.00;;;32.90
11321;BMP180;5715;48.234;14.320;2023-09-08T08:54:59;98934.00;;;33.10
11321;BMP180;5715;48.234;14.320;2023-09-08T08:57:48;98936.00;;;33.30
11321;BMP180;5715;48.234;14.320;2023-09-08T09:00:36;98932.00;;;33.50
11321;BMP180;5715;48.234;14.320;2023-09-08T09:03:27;98935.00;;;33.50
11321;BMP180;5715;48.234;14.320;2023-09-08T09:06:16;98934.00;;;33.30
11321;BMP180;5715;48.234;14.320;2023-09-08T09:09:05;98926.00;;;32.90
11321;BMP180;5715;48.234;14.320;2023-09-08T09:11:53;98940.00;;;32.80
11321;BMP180;5715;48.234;14.320;2023-09-08T09:14:46;98930.00;;;32.50
11321;BMP180;5715;48.234;14.320;2023-09-08T09:17:37;98934.00;;;32.90
11321;BMP180;5715;48.234;14.320;2023-09-08T09:20:25;98936.00;;;33.40
11321;BMP180;5715;48.234;14.320;2023-09-08T09:23:27;98927.00;;;33.10
11321;BMP180;5715;48.234;14.320;2023-09-08T09:26:26;98927.00;;;33.50
11321;BMP180;5715;48.234;14.320;2023-09-08T09:29:14;98938.00;;;34.00
11321;BMP180;5715;48.234;14.320;2023-09-08T09:32:04;98922.00;;;34.40
11321;BMP180;5715;48.234;14.320;2023-09-08T09:34:54;98926.00;;;34.20
11321;BMP180;5715;48.234;14.320;2023-09-08T09:37:42;98926.00;;;34.50
11321;BMP180;5715;48.234;14.320;2023-09-08T09:40:30;98921.00;;;34.50
11321;BMP180;5715;48.234;14.320;2023-09-08T09:43:22;98924.00;;;34.40
11321;BMP180;5715;48.234;14.320;2023-09-08T09:46:12;98920.00;;;34.70
11321;BMP180;5715;48.234;14.320;2023-09-08T09:49:02;98917.00;;;35.20
11321;BMP180;5715;48.234;14.320;2023-09-08T09:51:53;98921.00;;;34.90
11321;BMP180;5715;48.234;14.320;2023-09-08T09:54:43;98922.00;;;34.90
11321;BMP180;5715;48.234;14.320;2023-09-08T09:57:31;98906.00;;;35.30
11321;BMP180;5715;48.234;14.320;2023-09-08T10:00:20;98913.00;;;35.50
11321;BMP180;5715;48.234;14.320;2023-09-08T10:03:08;98915.00;;;35.30
11321;BMP180;5715;48.234;14.320;2023-09-08T10:05:56;98909.00;;;35.30
11321;BMP180;5715;48.234;14.320;2023-09-08T10:08:44;98908.00;;;35.40
11321;BMP180;5715;48.234;14.320;2023-09-08T10:11:47;98910.00;;;35.40
11321;BMP180;5715;48.234;14.320;2023-09-08T10:14:40;98900.00;;;35.30
11321;BMP180;5715;48.234;14.320;2023-09-08T10:17:31;98905.00;;;35.30
11321;BMP180;5715;48.234;14.320;2023-09-08T10:20:26;98898.00;;;35.60
11321;BMP180;5715;48.234;14.320;2023-09-08T10:23:40;98891.00;;;36.20
11321;BMP180;5715;48.234;14.320;2023-09-08T10:26:33;98889.00;;;35.90
11321;BMP180;5715;48.234;14.320;2023-09-08T10:29:24;98879.00;;;36.30
11321;BMP180;5715;48.234;14.320;2023-09-08T10:32:12;98891.00;;;36.50
11321;BMP180;5715;48.234;14.320;2023-09-08T10:35:02;98880.00;;;36.20
11321;BMP180;5715;48.234;14.320;2023-09-08T10:37:51;98882.00;;;36.40
11321;BMP180;5715;48.234;14.320;2023-09-08T10:40:38;98881.00;;;36.40
11321;BMP180;5715;48.234;14.320;2023-09-08T10:43:26;98879.00;;;36.50
11321;BMP180;5715;48.234;14.320;2023-09-08T10:46:43;98867.00;;;36.20
11321;BMP180;5715;48.234;14.320;2023-09-08T10:49:36;98874.00;;;36.10
11321;BMP180;5715;48.234;14.320;2023-09-08T10:52:25;98876.00;;;36.50
11321;BMP180;5715;48.234;14.320;2023-09-08T10:55:13;98870.00;;;36.50
11321;BMP180;5715;48.234;14.320;2023-09-08T10:58:00;98870.00;;;36.50
11321;BMP180;5715;48.234;14.320;2023-09-08T11:00:51;98871.00;;;37.00
11321;BMP180;5715;48.234;14.320;2023-09-08T11:03:47;98869.00;;;36.80
11321;BMP180;5715;48.234;14.320;2023-09-08T11:06:38;98866.00;;;36.30
11321;BMP180;5715;48.234;14.320;2023-09-08T11:09:25;98868.00;;;36.40
11321;BMP180;5715;48.234;14.320;2023-09-08T11:12:16;98865.00;;;36.90
11321;BMP180;5715;48.234;14.320;2023-09-08T11:15:08;98860.00;;;36.30
11321;BMP180;5715;48.234;14.320;2023-09-08T11:17:56;98871.00;;;36.10
11321;BMP180;5715;48.234;14.320;2023-09-08T11:20:44;98867.00;;;36.70
11321;BMP180;5715;48.234;14.320;2023-09-08T11:23:32;98857.00;;;37.40
11321;BMP180;5715;48.234;14.320;2023-09-08T11:26:19;98862.00;;;37.70
11321;BMP180;5715;48.234;14.320;2023-09-08T11:29:10;98871.00;;;37.60
11321;BMP180;5715;48.234;14.320;2023-09-08T11:31:58;98864.00;;;37.00
11321;BMP180;5715;48.234;14.320;2023-09-08T11:34:45;98863.00;;;37.50
11321;BMP180;5715;48.234;14.320;2023-09-08T11:37:37;98856.00;;;37.70
11321;BMP180;5715;48.234;14.320;2023-09-08T11:40:25;98862.00;;;37.90
11321;BMP180;5715;48.234;14.320;2023-09-08T11:43:13;98850.00;;;37.70
11321;BMP180;5715;48.234;14.320;2023-09-08T11:46:02;98851.00;;;37.70
11321;BMP180;5715;48.234;14.320;2023-09-08T11:48:50;98850.00;;;37.70
11321;BMP180;5715;48.234;14.320;2023-09-08T11:51:37;98849.00;;;38.10
11321;BMP180;5715;48.234;14.320;2023-09-08T11:54:25;98848.00;;;38.00
11321;BMP180;5715;48.234;14.320;2023-09-08T11:57:15;98848.00;;;37.70
11321;BMP180;5715;48.234;14.320;2023-09-08T12:00:04;98844.00;;;38.10
11321;BMP180;5715;48.234;14.320;2023-09-08T12:02:53;98852.00;;;37.90
11321;BMP180;5715;48.234;14.320;2023-09-08T12:05:42;98850.00;;;37.90
11321;BMP180;5715;48.234;14.320;2023-09-08T12:08:31;98848.00;;;37.40
11321;BMP180;5715;48.234;14.320;2023-09-08T12:11:19;98841.00;;;37.40
11321;BMP180;5715;48.234;14.320;2023-09-08T12:14:10;98838.00;;;37.60
11321;BMP180;5715;48.234;14.320;2023-09-08T12:17:07;98831.00;;;37.70
11321;BMP180;5715;48.234;14.320;2023-09-08T13:39:55;98783.00;;;38.10
11321;BMP180;5715;48.234;14.320;2023-09-08T13:42:43;98781.00;;;38.20
11321;BMP180;5715;48.234;14.320;2023-09-08T13:45:32;98787.00;;;38.10
11321;BMP180;5715;48.234;14.320;2023-09-08T13:48:19;98782.00;;;38.20
11321;BMP180;5715;48.234;14.320;2023-09-08T13:51:07;98783.00;;;38.40
11321;BMP180;5715;48.234;14.320;2023-09-08T13:53:57;98781.00;;;38.60
11321;BMP180;5715;48.234;14.320;2023-09-08T13:56:44;98775.00;;;38.30
11321;BMP180;5715;48.234;14.320;2023-09-08T13:59:33;98775.00;;;38.20
11321;BMP180;5715;48.234;14.320;2023-09-08T14:02:22;98773.00;;;38.40
11321;BMP180;5715;48.234;14.320;2023-09-08T14:05:12;98764.00;;;38.30
11321;BMP180;5715;48.234;14.320;2023-09-08T14:08:05;98767.00;;;38.40
11321;BMP180;5715;48.234;14.320;2023-09-08T14:11:04;98757.00;;;38.10
11321;BMP180;5715;48.234;14.320;2023-09-08T14:14:02;98747.00;;;38.10
11321;BMP180;5715;48.234;14.320;2023-09-08T14:16:51;98749.00;;;38.60
11321;BMP180;5715;48.234;14.320;2023-09-08T14:19:38;98743.00;;;38.60
11321;BMP180;5715;48.234;14.320;2023-09-08T14:22:26;98749.00;;;38.60
11321;BMP180;5715;48.234;14.320;2023-09-08T14:25:14;98745.00;;;38.80
11321;BMP180;5715;48.234;14.320;2023-09-08T14:28:01;98754.00;;;39.10
11321;BMP180;5715;48.234;14.320;2023-09-08T14:30:53;98747.00;;;39.10
11321;BMP180;5715;48.234;14.320;2023-09-08T14:33:41;98747.00;;;39.30
11321;BMP180;5715;48.234;14.320;2023-09-08T14:36:28;98747.00;;;39.20
11321;BMP180;5715;48.234;14.320;2023-09-08T14:39:16;98746.00;;;38.90
11321;BMP180;5715;48.234;14.320;2023-09-08T14:42:05;98750.00;;;38.80
11321;BMP180;5715;48.234;14.320;2023-09-08T14:44:53;98747.00;;;38.80
11321;BMP180;5715;48.234;14.320;2023-09-08T14:47:40;98746.00;;;38.70
11321;BMP180;5715;48.234;14.320;2023-09-08T14:50:28;98743.00;;;38.90
11321;BMP180;5715;48.234;14.320;2023-09-08T14:53:15;98742.00;;;38.90
11321;BMP180;5715;48.234;14.320;2023-09-08T14:56:03;98742.00;;;39.20
11321;BMP180;5715;48.234;14.320;2023-09-08T14:58:52;98743.00;;;39.10
11321;BMP180;5715;48.234;14.320;2023-09-08T15:01:39;98735.00;;;38.90
11321;BMP180;5715;48.234;14.320;2023-09-08T15:04:28;98741.00;;;39.00
11321;BMP180;5715;48.234;14.320;2023-09-08T15:07:15;98736.00;;;38.60
11321;BMP180;5715;48.234;14.320;2023-09-08T15:10:04;98738.00;;;38.70
11321;BMP180;5715;48.234;14.320;2023-09-08T15:12:51;98730.00;;;38.80
11321;BMP180;5715;48.234;14.320;2023-09-08T15:15:39;98737.00;;;38.70
11321;BMP180;5715;48.234;14.320;2023-09-08T15:18:30;98733.00;;;38.80
11321;BMP180;5715;48.234;14.320;2023-09-08T15:21:20;98730.00;;;38.70
11321;BMP180;5715;48.234;14.320;2023-09-08T15:24:13;98729.00;;;38.80
11321;BMP180;5715;48.234;14.320;2023-09-08T15:27:00;98731.00;;;38.40
11321;BMP180;5715;48.234;14.320;2023-09-08T15:29:49;98725.00;;;38.30
11321;BMP180;5715;48.234;14.320;2023-09-08T15:32:37;98717.00;;;38.30
11321;BMP180;5715;48.234;14.320;2023-09-08T15:35:26;98718.00;;;38.30
11321;BMP180;5715;48.234;14.320;2023-09-08T15:38:14;98721.00;;;38.50
11321;BMP180;5715;48.234;14.320;2023-09-08T15:43:57;98716.00;;;38.70
11321;BMP180;5715;48.234;14.320;2023-09-08T15:46:45;98719.00;;;38.60
11321;BMP180;5715;48.234;14.320;2023-09-08T15:49:33;98723.00;;;38.40
11321;BMP180;5715;48.234;14.320;2023-09-08T15:52:20;98711.00;;;38.40
11321;BMP180;5715;48.234;14.320;2023-09-08T15:55:08;98706.00;;;38.40
11321;BMP180;5715;48.234;14.320;2023-09-08T15:57:56;98707.00;;;38.50
11321;BMP180;5715;48.234;14.320;2023-09-08T16:00:43;98704.00;;;38.10
11321;BMP180;5715;48.234;14.320;2023-09-08T16:03:31;98708.00;;;38.10
11321;BMP180;5715;48.234;14.320;2023-09-08T16:06:19;98700.00;;;38.20
11321;BMP180;5715;48.234;14.320;2023-09-08T16:09:07;98700.00;;;38.10
11321;BMP180;5715;48.234;14.320;2023-09-08T16:11:54;98707.00;;;38.00
11321;BMP180;5715;48.234;14.320;2023-09-08T16:14:42;98699.00;;;37.90
11321;BMP180;5715;48.234;14.320;2023-09-08T16:17:29;98695.00;;;37.70
11321;BMP180;5715;48.234;14.320;2023-09-08T16:20:17;98699.00;;;37.50
11321;BMP180;5715;48.234;14.320;2023-09-08T16:23:07;98700.00;;;37.40
11321;BMP180;5715;48.234;14.320;2023-09-08T16:25:57;98690.00;;;37.30
11321;BMP180;5715;48.234;14.320;2023-09-08T16:28:45;98696.00;;;37.30
11321;BMP180;5715;48.234;14.320;2023-09-08T16:31:32;98701.00;;;37.20
11321;BMP180;5715;48.234;14.320;2023-09-08T16:34:20;98699.00;;;37.20
11321;BMP180;5715;48.234;14.320;2023-09-08T16:37:07;98703.00;;;37.00
11321;BMP180;5715;48.234;14.320;2023-09-08T16:39:55;98697.00;;;36.80
11321;BMP180;5715;48.234;14.320;2023-09-08T16:42:43;98701.00;;;36.70
11321;BMP180;5715;48.234;14.320;2023-09-08T16:45:31;98699.00;;;36.60
11321;BMP180;5715;48.234;14.320;2023-09-08T16:48:18;98699.00;;;36.70
11321;BMP180;5715;48.234;14.320;2023-09-08T16:51:06;98704.00;;;36.40
11321;BMP180;5715;48.234;14.320;2023-09-08T16:53:54;98695.00;;;36.30
11321;BMP180;5715;48.234;14.320;2023-09-08T16:56:45;98701.00;;;36.00
11321;BMP180;5715;48.234;14.320;2023-09-08T16:59:32;98700.00;;;35.80
11321;BMP180;5715;48.234;14.320;2023-09-08T17:02:20;98697.00;;;35.50
11321;BMP180;5715;48.234;14.320;2023-09-08T17:05:08;98695.00;;;35.20
11321;BMP180;5715;48.234;14.320;2023-09-08T17:07:58;98706.00;;;34.90
11321;BMP180;5715;48.234;14.320;2023-09-08T17:10:46;98700.00;;;34.70
11321;BMP180;5715;48.234;14.320;2023-09-08T17:13:35;98704.00;;;34.20
11321;BMP180;5715;48.234;14.320;2023-09-08T17:16:23;98699.00;;;34.00
11321;BMP180;5715;48.234;14.320;2023-09-08T17:19:11;98696.00;;;33.70
11321;BMP180;5715;48.234;14.320;2023-09-08T17:21:58;98705.00;;;33.90
11321;BMP180;5715;48.234;14.320;2023-09-08T17:24:49;98714.00;;;34.00
11321;BMP180;5715;48.234;14.320;2023-09-08T17:27:36;98710.00;;;34.00
11321;BMP180;5715;48.234;14.320;2023-09-08T17:30:24;98706.00;;;33.90
11321;BMP180;5715;48.234;14.320;2023-09-08T17:33:11;98705.00;;;33.80
11321;BMP180;5715;48.234;14.320;2023-09-08T17:35:59;98710.00;;;33.90
11321;BMP180;5715;48.234;14.320;2023-09-08T17:38:47;98706.00;;;33.70